AirNav   Pilot Hours Calculator
 
 989 users online  

IS48 Illinois State Police District 22 Heliport
Ullin, Illinois, USA

GOING TO ULLIN?


FAA INFORMATION EFFECTIVE 07 NOVEMBER 2019

Location

FAA Identifier: IS48
Lat/Long: 37-16-17.0000N 089-09-53.0000W
37-16.283333N 089-09.883333W
37.2713889,-89.1647222
(estimated)
Elevation: 335 ft. / 102 m (estimated)
Variation: 00E (1995)
From city: 1 mile SE of ULLIN, IL
Time zone: UTC -6 (UTC -5 during Daylight Saving Time)
Zip code: 62992

Heliport Operations

Heliport use: Private use. Permission required prior to landing
Activation date: 05/1999
Control tower: no
ARTCC: MEMPHIS CENTER
FSS: COLUMBIA FLIGHT SERVICE STATION
Attendance: CONTINUOUS
Segmented circle: no

Heliport Communications

WX AWOS-3 at CIR (13 nm S): 118.025 (618-734-9173)
WX ASOS at CGI (20 nm W): 120.55 (573-335-3811)

Nearby radio navigation aids

VOR radial/distance  VOR name  Freq  Var
CGIr084/19.6CAPE GIRARDEAU VOR/DME112.9002W
CNGr312/22.2CUNNINGHAM VOR/DME113.1003E
MWAr190/29.9MARION VOR/DME110.4004E

 
NDB name  Hdg/Dist  Freq  Var  ID
CAIRO012/12.939700ECIR -.-. .. .-.

Heliport Services

Runway Information

Helipad H1

Dimensions: 100 x 100 ft. / 30 x 30 m
Surface: turf
Traffic pattern: leftleft

Heliport Ownership and Management from official FAA records

Ownership: Privately-owned
Owner: IL STATE POLICE - DISTRICT 22
1154 SHAWNEE COLLEGE ROAD
ULLIN, IL 62992
Phone 618-845-3740
Manager: LT. SHANE ALVEY #4751
1154 SHAWNEE COLLEGE ROAD
ULLIN, IL 62992
Phone 618-845-3740

Additional Remarks

A52-H1 RY H1 200 FT LGTD TOWER EOO FT SSE, 30 FT BLDG 125 FT S & 107 FT SIGN 925 FT W OF HELI.
FOR CD CTC MEMPHIS ARTCC AT 901-368-8453.

Instrument Procedures

There are no published instrument procedures at IS48.

Some nearby airports with instrument procedures:

KCIR - Cairo Regional Airport (13 nm S)
KCGI - Cape Girardeau Regional Airport (20 nm W)
KPAH - Barkley Regional Airport (23 nm SE)
KCHQ - Mississippi County Airport (27 nm S)
KSIK - Sikeston Memorial Municipal Airport (29 nm SW)
 
Loc | Ops | Rwys | IFR | FBO | Links
Com | Nav | Svcs | Stats | Notes
Area around IS48 (Illinois State Police District 22 Heliport)
 
Road maps at: MapQuest Bing Google
 
Aerial photo
No photo
 
Sectional chart

 
Airport distance calculator
Flying to Illinois State Police District 22 Heliport? Find the distance to fly.

From to IS48

Sunrise and sunset
Times for 16-Nov-2019
 Local
(UTC-6)
 Zulu
(UTC)
Morning civil twilight06:1012:10
Sunrise06:3812:38
Sunset16:4522:45
Evening civil twilight17:1323:13

Current date and time
Zulu (UTC)  16-Nov-2019 21:10:18
Local (UTC-6)  16-Nov-2019 15:10:18
 
METAR
KCIR 
13nm S 
162055Z AUTO 00000KT 10SM CLR 11/01 A3020 RMK AO2 T01070006
KCGI 
20nm W 
162053Z 06006KT 10SM CLR 11/01 A3020 RMK AO2 SLP227 T01110006 56025
KM30 
20nm E 
162055Z AUTO 05003KT 10SM CLR 11/00 A3021 RMK AO2 T01061005
KPAH 
23nm SE 
162053Z 04007KT 10SM CLR 11/M01 A3019 RMK AO2 SLP225 T01111006 56024
TAF
KCGI 
20nm W 
161954Z 1620/1718 04005KT P6SM SCT250 FM170100 VRB02KT P6SM SCT250 FM170500 00000KT 3SM BR BCFG SCT250 FM171500 VRB03KT P6SM BKN250
KPAH 
23nm SE 
161955Z 1620/1718 02007KT P6SM SCT250 FM170100 VRB03KT P6SM SCT250 FM170600 00000KT 3SM BR BCFG SCT250 FM171400 VRB03KT P6SM BKN250
NOTAMs
Click for the latest NOTAMs
NOTAMs are issued by the DoD/FAA and will open in a separate window not controlled by AirNav.

 

 
 

Would you like to see your business listed on this page?

 If your business provides an interesting product or service to pilots, flight crews, aircraft, or users of the Illinois State Police District 22 Heliport, you should consider listing it here.  To start the listing process, click on the button below
 
Add a business
 

Other Pages about Illinois State Police District 22 Heliport

Update a link
 
Copyright © AirNav, LLC. All rights reserved. Privacy Policy  Contact